Time;durP1;ratioP1;P1;durP2;ratioP2;P2;SDS_P1;SDS_P2;PMS_P1;PMS_P2;Temp;Humidity;BMP_temperature;BMP_pressure;BME280_temperature;BME280_humidity;BME280_pressure;Samples;Min_cycle;Max_cycle;Signal;HPM_P1;HPM_P2
2023/03/22 00:01:14;;;;;;;7.43;6.45;;;10.90;96.40;;;;;;5048710;28;20909;-74
2023/03/22 00:03:41;;;;;;;7.35;5.80;;;10.90;96.30;;;;;;5054061;28;20916;-74
2023/03/22 00:06:10;;;;;;;6.53;5.70;;;10.90;96.50;;;;;;5046822;28;20421;-74
2023/03/22 00:08:38;;;;;;;8.00;6.50;;;10.90;96.40;;;;;;5045687;28;20456;-73
2023/03/22 00:11:06;;;;;;;7.82;7.03;;;10.90;96.40;;;;;;5043741;28;20440;-73
2023/03/22 00:13:34;;;;;;;10.00;7.35;;;10.90;96.90;;;;;;5044434;28;20465;-74
2023/03/22 00:16:01;;;;;;;7.13;6.40;;;11.00;96.50;;;;;;5047762;28;20447;-74
2023/03/22 00:18:28;;;;;;;7.45;6.75;;;11.00;96.70;;;;;;5046400;28;20784;-74
2023/03/22 00:20:57;;;;;;;7.03;6.32;;;11.00;96.60;;;;;;5046938;28;20453;-74
2023/03/22 00:23:25;;;;;;;8.70;6.80;;;11.00;96.60;;;;;;5046056;28;20885;-75
2023/03/22 00:25:52;;;;;;;9.07;7.33;;;11.00;96.50;;;;;;5047589;28;20425;-74
2023/03/22 00:28:19;;;;;;;7.35;6.65;;;11.00;96.40;;;;;;5046893;28;20437;-73
2023/03/22 00:30:52;;;;;;;8.00;7.20;;;11.10;96.40;;;;;;5056195;28;20438;-72
2023/03/22 00:33:18;;;;;;;7.70;6.90;;;11.10;96.40;;;;;;5042393;28;20444;-74
2023/03/22 00:35:49;;;;;;;7.00;6.30;;;11.10;96.40;;;;;;5045655;28;20436;-73
2023/03/22 00:38:15;;;;;;;7.55;6.85;;;11.10;96.50;;;;;;5046523;28;20433;-73
2023/03/22 00:40:44;;;;;;;7.93;7.22;;;11.10;96.60;;;;;;5044872;28;20440;-73
2023/03/22 00:43:11;;;;;;;8.00;7.20;;;11.10;96.60;;;;;;5047666;28;20897;-74
2023/03/22 00:45:39;;;;;;;9.07;7.07;;;11.10;96.60;;;;;;5059909;28;20436;-74
2023/03/22 00:48:08;;;;;;;7.55;6.60;;;11.10;96.60;;;;;;5045026;28;20837;-74
2023/03/22 00:50:35;;;;;;;7.30;6.60;;;11.10;96.70;;;;;;5047106;28;20574;-74
2023/03/22 00:53:02;;;;;;;7.60;7.00;;;11.10;96.50;;;;;;5042973;28;20791;-74
2023/03/22 00:55:28;;;;;;;7.70;7.00;;;11.10;96.60;;;;;;5047184;28;20409;-74
2023/03/22 00:57:56;;;;;;;8.60;7.00;;;11.10;96.60;;;;;;5054719;28;20435;-74
2023/03/22 01:00:23;;;;;;;8.48;7.45;;;11.00;96.80;;;;;;5054568;28;20918;-74
2023/03/22 01:02:52;;;;;;;7.50;6.80;;;11.00;96.90;;;;;;5045438;28;20712;-73
2023/03/22 01:05:20;;;;;;;8.57;7.13;;;10.90;97.10;;;;;;5047095;28;20506;-73
2023/03/22 01:07:50;;;;;;;8.18;6.97;;;10.90;97.10;;;;;;5046210;28;20520;-75
2023/03/22 01:10:18;;;;;;;8.43;7.70;;;10.90;97.20;;;;;;5045538;28;20498;-75
2023/03/22 01:12:45;;;;;;;7.32;6.60;;;10.90;97.40;;;;;;5052655;28;20431;-74
2023/03/22 01:15:13;;;;;;;7.88;7.07;;;10.90;97.40;;;;;;5045153;28;20421;-75
2023/03/22 01:17:40;;;;;;;8.10;7.40;;;10.80;97.60;;;;;;5047416;28;20444;-74
2023/03/22 01:20:08;;;;;;;7.75;7.05;;;10.90;97.70;;;;;;5055987;28;20469;-74
2023/03/22 01:22:35;;;;;;;8.48;7.68;;;10.90;97.70;;;;;;5052377;28;20516;-74
2023/03/22 01:25:02;;;;;;;7.73;7.10;;;10.90;97.30;;;;;;5052997;28;20440;-73
2023/03/22 01:27:30;;;;;;;7.90;7.03;;;10.90;97.30;;;;;;5057224;28;20728;-73
2023/03/22 01:29:56;;;;;;;7.60;6.90;;;10.90;97.30;;;;;;5052655;28;20807;-75
2023/03/22 01:32:25;;;;;;;7.45;6.75;;;10.90;97.30;;;;;;5044523;28;20930;-73
2023/03/22 01:34:51;;;;;;;7.83;7.07;;;11.00;97.40;;;;;;5045522;28;20825;-74
2023/03/22 01:37:18;;;;;;;8.60;7.13;;;11.00;97.40;;;;;;5045084;28;20441;-74
2023/03/22 01:39:45;;;;;;;7.47;6.78;;;11.00;97.40;;;;;;5043028;28;20855;-75
2023/03/22 01:42:13;;;;;;;7.22;6.53;;;10.90;97.40;;;;;;5043801;28;20844;-75
2023/03/22 01:44:43;;;;;;;7.50;6.80;;;10.90;97.50;;;;;;5045095;28;20520;-74
2023/03/22 01:47:10;;;;;;;8.93;7.70;;;10.90;97.70;;;;;;5044838;28;20445;-72
2023/03/22 01:49:40;;;;;;;8.05;7.25;;;10.90;97.90;;;;;;5044466;28;20506;-75
2023/03/22 01:52:11;;;;;;;8.40;7.60;;;10.80;98.00;;;;;;5045154;28;20421;-74
2023/03/22 01:54:42;;;;;;;8.93;7.05;;;10.80;98.00;;;;;;5044641;28;20444;-74
2023/03/22 01:57:09;;;;;;;7.60;6.70;;;10.70;98.40;;;;;;5053969;28;20415;-74
2023/03/22 01:59:36;;;;;;;8.07;7.28;;;10.60;98.50;;;;;;5051317;28;20425;-74
2023/03/22 02:02:03;;;;;;;8.00;7.30;;;10.60;98.90;;;;;;5044902;28;20429;-74
2023/03/22 02:04:34;;;;;;;7.97;7.18;;;10.50;99.10;;;;;;5056993;28;20465;-74
2023/03/22 02:07:08;;;;;;;8.90;7.85;;;10.50;99.30;;;;;;5052421;28;20807;-74
2023/03/22 02:09:38;;;;;;;7.97;7.05;;;10.50;99.50;;;;;;5038073;28;20472;-74
2023/03/22 02:12:16;;;;;;;9.25;7.70;;;10.40;99.70;;;;;;5055395;28;20445;-75
2023/03/22 02:14:54;;;;;;;7.97;7.28;;;10.40;99.90;;;;;;5045793;28;20421;-74
2023/03/22 02:17:29;;;;;;;7.95;7.25;;;10.40;99.90;;;;;;5048237;28;20846;-74
2023/03/22 02:20:44;;;;;;;7.88;7.00;;;10.40;99.90;;;;;;5045038;28;20436;-72
2023/03/22 02:24:09;;;;;;;7.80;7.10;;;10.30;99.90;;;;;;4985369;28;20695;-74
2023/03/22 02:27:23;;;;;;;7.90;7.20;;;10.30;99.90;;;;;;5058699;28;20525;-72
2023/03/22 02:30:00;;;;;;;8.35;7.32;;;10.40;99.90;;;;;;4970819;28;20831;-74
2023/03/22 02:32:52;;;;;;;8.20;7.50;;;10.30;99.90;;;;;;5041182;28;20474;-75
2023/03/22 02:35:41;;;;;;;7.20;6.60;;;10.30;99.90;;;;;;5046834;28;20431;-74
2023/03/22 02:38:37;;;;;;;7.70;6.90;;;10.30;99.90;;;;;;5053636;28;20420;-74
2023/03/22 02:41:11;;;;;;;8.00;6.87;;;10.30;99.90;;;;;;5051158;28;20512;-74
2023/03/22 02:43:46;;;;;;;7.25;6.65;;;10.20;99.90;;;;;;5044331;28;20432;-73
2023/03/22 02:46:19;;;;;;;7.00;6.40;;;10.20;99.90;;;;;;5046335;28;20432;-74
2023/03/22 02:48:53;;;;;;;7.78;6.97;;;10.10;99.90;;;;;;5042716;28;20444;-75
2023/03/22 02:51:25;;;;;;;7.13;6.43;;;10.10;99.90;;;;;;5043716;28;20423;-74
2023/03/22 02:53:56;;;;;;;8.13;6.80;;;10.10;99.90;;;;;;5050088;28;20914;-72
2023/03/22 02:56:27;;;;;;;7.20;6.50;;;10.10;99.90;;;;;;5061197;28;20417;-73
2023/03/22 02:58:56;;;;;;;7.07;6.10;;;10.00;99.90;;;;;;5054861;28;20424;-74
2023/03/22 03:01:27;;;;;;;7.57;6.80;;;10.00;99.90;;;;;;5052831;28;20780;-74
2023/03/22 03:03:57;;;;;;;7.70;6.90;;;10.00;99.90;;;;;;5035351;28;20469;-74
2023/03/22 03:06:27;;;;;;;6.90;6.20;;;10.00;99.90;;;;;;5046336;28;20764;-75
2023/03/22 03:08:56;;;;;;;6.90;6.20;;;10.00;99.90;;;;;;5046666;28;20429;-75
2023/03/22 03:11:25;;;;;;;6.90;6.30;;;10.00;99.90;;;;;;5062876;28;20419;-74
2023/03/22 03:13:51;;;;;;;6.95;5.90;;;10.00;99.90;;;;;;5049264;28;20426;-74
2023/03/22 03:16:21;;;;;;;6.53;5.93;;;10.00;99.90;;;;;;5044867;28;20421;-74
2023/03/22 03:18:54;;;;;;;6.85;5.68;;;10.00;99.90;;;;;;5054664;28;20417;-74
2023/03/22 03:21:33;;;;;;;6.43;5.63;;;10.00;99.90;;;;;;5053328;28;20499;-74
2023/03/22 03:24:18;;;;;;;7.03;6.33;;;10.00;99.90;;;;;;5061072;28;20505;-74
2023/03/22 03:26:56;;;;;;;7.38;6.38;;;10.00;99.90;;;;;;5042634;28;20914;-74
2023/03/22 03:29:29;;;;;;;6.93;6.22;;;10.00;99.90;;;;;;5052692;28;20456;-75
2023/03/22 03:32:05;;;;;;;7.00;6.30;;;10.00;99.90;;;;;;5053256;28;20686;-75
2023/03/22 03:34:36;;;;;;;7.78;6.90;;;10.00;99.90;;;;;;5054587;28;20429;-74
2023/03/22 03:37:07;;;;;;;7.82;6.43;;;9.90;99.90;;;;;;5048636;28;20550;-75
2023/03/22 03:39:38;;;;;;;8.73;6.80;;;9.90;99.90;;;;;;5062508;28;20467;-74
2023/03/22 03:42:11;;;;;;;7.00;6.22;;;9.90;99.90;;;;;;5052122;28;20520;-75
2023/03/22 03:44:39;;;;;;;7.35;6.40;;;9.80;99.90;;;;;;5048696;28;20428;-74
2023/03/22 03:47:08;;;;;;;6.77;6.17;;;9.80;99.90;;;;;;5047988;28;20428;-74
2023/03/22 03:49:35;;;;;;;6.85;6.20;;;9.80;99.90;;;;;;5047414;28;20853;-74
2023/03/22 03:52:04;;;;;;;8.43;6.95;;;9.80;99.90;;;;;;5047197;28;20437;-74
2023/03/22 03:54:31;;;;;;;7.10;6.40;;;9.80;99.90;;;;;;5053170;28;20429;-75
2023/03/22 03:56:58;;;;;;;7.70;6.90;;;9.80;99.90;;;;;;5046800;28;20827;-74
2023/03/22 03:59:26;;;;;;;8.10;7.07;;;9.80;99.90;;;;;;5047217;28;20435;-74
2023/03/22 04:01:53;;;;;;;8.70;7.25;;;9.90;99.90;;;;;;5046589;28;20433;-75
2023/03/22 04:04:25;;;;;;;7.70;6.95;;;9.90;99.90;;;;;;5045691;28;20944;-75
2023/03/22 04:06:52;;;;;;;7.55;6.57;;;9.80;99.90;;;;;;5046415;28;20432;-75
2023/03/22 04:09:19;;;;;;;8.10;7.30;;;9.90;99.90;;;;;;5052790;28;20421;-75
2023/03/22 04:11:46;;;;;;;8.48;7.68;;;9.90;99.90;;;;;;5047573;28;20474;-73
2023/03/22 04:14:13;;;;;;;7.03;6.30;;;9.90;99.90;;;;;;5052098;28;20663;-73
2023/03/22 04:16:41;;;;;;;7.38;6.78;;;9.90;99.90;;;;;;5052429;28;20425;-73
2023/03/22 04:19:08;;;;;;;7.70;6.60;;;9.80;99.90;;;;;;5053837;28;20424;-75
2023/03/22 04:21:35;;;;;;;7.55;6.85;;;9.80;99.90;;;;;;5050356;28;20513;-74
2023/03/22 04:24:01;;;;;;;8.00;7.20;;;9.90;99.90;;;;;;5054669;28;20489;-73
2023/03/22 04:26:28;;;;;;;8.70;7.78;;;9.80;99.90;;;;;;5052607;28;20425;-74
2023/03/22 04:28:55;;;;;;;8.40;7.50;;;9.80;99.90;;;;;;5052257;28;20752;-72
2023/03/22 04:31:22;;;;;;;9.10;7.75;;;9.80;99.90;;;;;;5053819;28;20501;-73
2023/03/22 04:33:53;;;;;;;8.60;7.07;;;9.80;99.90;;;;;;5050802;28;20425;-71
2023/03/22 04:36:20;;;;;;;8.05;7.25;;;9.80;99.90;;;;;;5057781;28;20439;-74
2023/03/22 04:38:47;;;;;;;8.88;7.50;;;9.80;99.90;;;;;;5055253;28;20532;-73
2023/03/22 04:41:14;;;;;;;8.57;7.43;;;9.80;99.90;;;;;;5051143;28;20417;-73
2023/03/22 04:43:41;;;;;;;8.60;7.70;;;9.80;99.90;;;;;;5048286;28;20441;-73
2023/03/22 04:46:08;;;;;;;8.23;7.38;;;9.80;99.90;;;;;;5053465;28;20443;-72
2023/03/22 04:48:36;;;;;;;8.63;7.60;;;9.70;99.90;;;;;;5053154;28;20417;-72
2023/03/22 04:51:04;;;;;;;8.15;7.15;;;9.70;99.90;;;;;;5065532;28;20518;-73
2023/03/22 04:53:31;;;;;;;9.07;7.32;;;9.70;99.90;;;;;;5058009;28;20418;-73
2023/03/22 04:55:58;;;;;;;9.80;7.85;;;9.70;99.90;;;;;;5054352;28;20428;-73
2023/03/22 04:58:26;;;;;;;9.13;7.73;;;9.70;99.90;;;;;;5055469;28;20425;-73
2023/03/22 05:00:53;;;;;;;9.43;7.35;;;9.70;99.90;;;;;;5054515;28;20532;-73
2023/03/22 05:03:20;;;;;;;8.40;7.35;;;9.70;99.90;;;;;;5054057;28;21049;-73
2023/03/22 05:05:51;;;;;;;8.80;7.90;;;9.80;99.90;;;;;;5069374;28;20442;-73
2023/03/22 05:08:19;;;;;;;8.40;7.50;;;9.70;99.90;;;;;;5043126;28;20439;-74
2023/03/22 05:10:46;;;;;;;9.15;8.25;;;9.80;99.90;;;;;;5051043;28;20420;-73
2023/03/22 05:13:13;;;;;;;9.20;8.05;;;9.70;99.90;;;;;;5051179;28;20423;-73
2023/03/22 05:15:40;;;;;;;9.20;8.20;;;9.70;99.90;;;;;;5050860;28;20440;-73
2023/03/22 05:18:07;;;;;;;9.32;8.40;;;9.70;99.90;;;;;;5060792;28;20519;-73
2023/03/22 05:20:35;;;;;;;9.18;8.00;;;9.70;99.90;;;;;;5061599;28;20578;-73
2023/03/22 05:23:03;;;;;;;9.70;8.80;;;9.70;99.90;;;;;;5050318;28;20499;-73
2023/03/22 05:25:32;;;;;;;11.15;8.77;;;9.60;99.90;;;;;;5048849;28;20424;-73
2023/03/22 05:28:00;;;;;;;9.00;8.10;;;9.60;99.90;;;;;;5061355;28;20480;-72
2023/03/22 05:30:28;;;;;;;9.60;8.60;;;9.60;99.90;;;;;;5062764;28;20438;-73
2023/03/22 05:33:01;;;;;;;9.65;8.57;;;9.60;99.90;;;;;;5053919;28;20893;-73
2023/03/22 05:35:29;;;;;;;10.90;8.93;;;9.60;99.90;;;;;;5057658;28;20441;-73
2023/03/22 05:37:56;;;;;;;8.75;7.85;;;9.60;99.90;;;;;;5052842;28;20495;-73
2023/03/22 05:40:23;;;;;;;11.23;8.88;;;9.60;99.90;;;;;;5046902;28;20547;-73
2023/03/22 05:42:52;;;;;;;8.25;7.45;;;9.70;99.90;;;;;;5048335;28;20425;-77
2023/03/22 05:45:19;;;;;;;9.13;8.23;;;9.70;99.90;;;;;;5048930;28;20907;-72
2023/03/22 05:47:46;;;;;;;8.70;7.80;;;9.70;99.90;;;;;;5060411;28;20499;-74
2023/03/22 05:50:14;;;;;;;8.82;7.43;;;9.80;99.90;;;;;;5046341;28;20428;-71
2023/03/22 05:52:43;;;;;;;8.10;7.30;;;9.90;99.90;;;;;;5041825;28;20429;-71
2023/03/22 05:55:11;;;;;;;8.00;7.20;;;9.90;99.90;;;;;;5043271;28;20529;-72
2023/03/22 05:57:38;;;;;;;7.88;7.10;;;10.00;99.90;;;;;;5059121;28;20457;-72
2023/03/22 06:00:12;;;;;;;8.52;6.65;;;10.10;99.90;;;;;;5048874;28;20940;-72
2023/03/22 06:02:38;;;;;;;8.32;7.00;;;10.10;99.90;;;;;;5051798;28;20561;-72
2023/03/22 06:05:06;;;;;;;7.47;6.78;;;10.10;99.90;;;;;;5044680;28;20433;-70
2023/03/22 06:07:33;;;;;;;6.93;5.90;;;10.20;99.90;;;;;;5054529;28;20424;-72
2023/03/22 06:10:00;;;;;;;8.98;6.70;;;10.20;99.90;;;;;;5046292;28;20532;-73
2023/03/22 06:12:26;;;;;;;6.60;5.90;;;10.30;99.90;;;;;;5044560;28;20423;-73
2023/03/22 06:14:53;;;;;;;6.57;5.78;;;10.30;99.90;;;;;;5049573;28;20430;-72
2023/03/22 06:17:22;;;;;;;8.27;6.00;;;10.30;99.90;;;;;;5044243;28;20454;-72
2023/03/22 06:19:49;;;;;;;8.00;6.50;;;10.30;99.90;;;;;;5040185;28;20500;-72
2023/03/22 06:22:16;;;;;;;7.13;6.05;;;10.40;99.90;;;;;;5048326;28;20428;-73
2023/03/22 06:24:43;;;;;;;7.60;6.30;;;10.40;99.90;;;;;;5042929;28;20752;-72
2023/03/22 06:27:10;;;;;;;6.60;6.00;;;10.40;99.90;;;;;;5058099;28;20454;-72
2023/03/22 06:29:37;;;;;;;7.85;6.90;;;10.40;99.90;;;;;;5040735;28;20433;-74
2023/03/22 06:32:05;;;;;;;7.55;6.07;;;10.40;99.90;;;;;;5043582;28;20433;-72
2023/03/22 06:34:33;;;;;;;6.50;5.90;;;10.40;99.90;;;;;;5047937;28;20455;-72
2023/03/22 06:37:00;;;;;;;6.30;5.70;;;10.50;99.90;;;;;;5039722;28;20786;-72
2023/03/22 06:39:27;;;;;;;6.30;5.70;;;10.50;99.90;;;;;;5048796;28;20542;-72
2023/03/22 06:41:54;;;;;;;6.50;5.90;;;10.50;99.90;;;;;;5052796;28;20431;-62
2023/03/22 06:44:21;;;;;;;6.13;5.53;;;10.60;99.90;;;;;;5038183;28;20502;-63
2023/03/22 06:46:48;;;;;;;6.10;5.50;;;10.80;99.90;;;;;;5040834;28;20457;-72
2023/03/22 06:49:15;;;;;;;7.23;6.03;;;10.80;99.90;;;;;;5045170;28;20453;-71
2023/03/22 06:51:43;;;;;;;6.90;6.20;;;10.90;99.90;;;;;;5056611;28;20411;-72
2023/03/22 06:54:11;;;;;;;6.80;6.10;;;10.90;99.90;;;;;;5043819;28;20924;-73
2023/03/22 06:56:38;;;;;;;6.38;5.45;;;10.90;99.90;;;;;;5047934;28;20444;-72
2023/03/22 06:59:04;;;;;;;7.93;5.90;;;10.90;99.90;;;;;;5045365;28;20441;-71
2023/03/22 07:01:31;;;;;;;5.90;5.30;;;10.90;99.90;;;;;;5037818;28;20437;-71
2023/03/22 07:03:58;;;;;;;7.87;5.73;;;11.00;99.90;;;;;;5046553;28;20514;-70
2023/03/22 07:06:25;;;;;;;8.43;6.00;;;11.00;99.90;;;;;;5048683;28;20877;-70
2023/03/22 07:08:53;;;;;;;6.13;4.90;;;11.10;99.90;;;;;;5052810;28;20432;-71
2023/03/22 07:11:20;;;;;;;6.35;5.40;;;11.20;99.70;;;;;;5049790;28;20421;-70
2023/03/22 07:13:46;;;;;;;8.00;4.90;;;11.20;99.40;;;;;;5055257;28;20444;-70
2023/03/22 07:16:13;;;;;;;6.30;5.33;;;11.20;99.90;;;;;;5049855;28;20910;-70
2023/03/22 07:18:40;;;;;;;5.90;5.30;;;11.10;99.40;;;;;;5053725;28;20573;-70
2023/03/22 07:21:07;;;;;;;6.32;5.68;;;11.20;99.50;;;;;;5048199;28;20536;-70
2023/03/22 07:23:34;;;;;;;5.95;5.07;;;11.10;99.40;;;;;;5061884;28;20424;-70
2023/03/22 07:26:02;;;;;;;7.88;5.13;;;11.20;99.70;;;;;;5056709;28;20433;-70
2023/03/22 07:28:29;;;;;;;6.35;5.68;;;11.20;99.50;;;;;;5053408;28;20548;-71
2023/03/22 07:31:03;;;;;;;5.55;5.03;;;11.30;99.70;;;;;;5047391;28;20425;-72
2023/03/22 07:33:29;;;;;;;6.85;5.30;;;11.30;99.70;;;;;;5047550;28;20452;-72
2023/03/22 07:35:56;;;;;;;6.70;5.40;;;11.40;99.40;;;;;;5047810;28;20836;-71
2023/03/22 07:38:23;;;;;;;5.10;4.50;;;11.50;99.00;;;;;;5049581;28;20443;-72
2023/03/22 07:40:53;;;;;;;5.97;4.70;;;11.60;98.20;;;;;;5051052;28;20432;-72
2023/03/22 07:43:22;;;;;;;5.38;3.50;;;11.80;97.10;;;;;;5044871;28;20867;-71
2023/03/22 07:45:49;;;;;;;6.05;2.97;;;12.00;96.10;;;;;;5047867;28;20890;-73
2023/03/22 07:48:16;;;;;;;4.90;2.80;;;12.20;95.10;;;;;;5058052;28;20800;-73
2023/03/22 07:50:43;;;;;;;4.32;2.80;;;12.30;93.90;;;;;;5047985;28;20433;-73
2023/03/22 07:53:10;;;;;;;4.22;2.60;;;12.50;93.40;;;;;;5065349;28;20403;-71
2023/03/22 07:55:37;;;;;;;5.85;2.90;;;12.60;92.70;;;;;;5063002;28;20431;-71
2023/03/22 07:58:05;;;;;;;4.87;3.20;;;12.60;92.00;;;;;;5048779;28;20504;-70
2023/03/22 08:00:33;;;;;;;5.30;3.15;;;12.60;91.80;;;;;;5048489;28;20470;-70
2023/03/22 08:02:59;;;;;;;5.43;2.70;;;12.60;91.60;;;;;;5047553;28;20425;-72
2023/03/22 08:05:26;;;;;;;4.50;2.55;;;12.50;91.50;;;;;;5051641;28;20454;-72
2023/03/22 08:07:55;;;;;;;4.10;2.80;;;12.50;91.70;;;;;;5056480;28;20950;-72
2023/03/22 08:10:22;;;;;;;5.03;2.90;;;12.50;91.60;;;;;;5045450;28;20422;-72
2023/03/22 08:12:49;;;;;;;3.85;2.50;;;12.60;91.40;;;;;;5056829;28;20464;-72
2023/03/22 08:15:16;;;;;;;4.53;2.30;;;12.70;90.80;;;;;;5044872;28;20482;-73
2023/03/22 08:17:44;;;;;;;3.75;1.90;;;12.80;90.00;;;;;;5054131;28;20431;-72
2023/03/22 08:20:12;;;;;;;3.00;2.10;;;13.10;88.70;;;;;;5064374;28;20442;-70
2023/03/22 08:22:38;;;;;;;3.42;1.60;;;13.20;86.90;;;;;;5060651;28;20454;-72
2023/03/22 08:25:06;;;;;;;3.50;1.70;;;13.40;86.30;;;;;;5057741;28;20643;-71
2023/03/22 08:27:33;;;;;;;3.00;1.75;;;13.60;82.40;;;;;;5044603;28;20528;-72
2023/03/22 08:29:59;;;;;;;5.05;2.00;;;13.80;77.80;;;;;;5045934;28;20433;-72
2023/03/22 08:32:26;;;;;;;2.60;1.40;;;13.90;77.40;;;;;;5047990;28;20454;-72
2023/03/22 08:34:54;;;;;;;2.60;1.35;;;13.90;75.30;;;;;;5053421;28;20455;-72
2023/03/22 08:37:21;;;;;;;2.50;0.97;;;14.00;74.10;;;;;;5054549;28;20624;-71
2023/03/22 08:39:48;;;;;;;1.70;1.00;;;14.00;71.90;;;;;;5046777;28;20417;-70
2023/03/22 08:42:15;;;;;;;3.10;1.10;;;13.90;70.80;;;;;;5045461;28;20440;-73
2023/03/22 08:44:41;;;;;;;2.75;1.20;;;13.90;70.90;;;;;;5045190;28;20444;-72
2023/03/22 08:47:08;;;;;;;2.38;1.17;;;13.90;72.60;;;;;;5046693;28;20437;-72
2023/03/22 08:49:35;;;;;;;3.08;1.20;;;13.90;71.30;;;;;;5050772;28;20425;-72
2023/03/22 08:52:06;;;;;;;3.60;1.20;;;14.20;72.10;;;;;;5055987;28;20433;-72
2023/03/22 08:54:32;;;;;;;2.83;1.37;;;14.40;70.70;;;;;;5051379;28;20498;-71
2023/03/22 08:57:02;;;;;;;3.13;1.10;;;14.60;67.80;;;;;;5045103;28;20421;-72
2023/03/22 08:59:28;;;;;;;3.15;1.10;;;14.70;66.10;;;;;;5045735;28;20421;-73
2023/03/22 09:01:55;;;;;;;3.50;1.35;;;14.80;65.70;;;;;;5043611;28;20437;-72
2023/03/22 09:04:22;;;;;;;5.18;1.42;;;14.80;64.90;;;;;;5049551;28;20911;-72
2023/03/22 09:06:49;;;;;;;2.30;1.30;;;14.80;65.20;;;;;;5055472;28;20417;-72
2023/03/22 09:09:17;;;;;;;3.33;1.27;;;14.60;64.70;;;;;;5045627;28;20429;-71
2023/03/22 09:11:43;;;;;;;2.50;1.10;;;14.50;64.70;;;;;;5049684;28;20411;-70
2023/03/22 09:14:10;;;;;;;2.28;1.40;;;14.20;65.40;;;;;;5051983;28;20424;-72
2023/03/22 09:16:37;;;;;;;4.90;1.60;;;14.00;67.60;;;;;;5044554;28;20474;-73
2023/03/22 09:19:05;;;;;;;2.15;1.27;;;13.90;67.20;;;;;;5052693;28;20427;-72
2023/03/22 09:21:34;;;;;;;2.08;1.10;;;13.80;67.00;;;;;;5052360;28;22318;-71
2023/03/22 09:24:00;;;;;;;2.35;1.40;;;13.80;67.80;;;;;;5045791;28;20453;-71
2023/03/22 09:26:28;;;;;;;2.15;1.25;;;13.90;65.20;;;;;;5051072;28;20497;-71
2023/03/22 09:28:55;;;;;;;2.65;1.02;;;13.90;66.10;;;;;;5056803;28;20483;-69
2023/03/22 09:31:22;;;;;;;3.30;1.20;;;13.90;66.30;;;;;;5045379;28;20436;-71
2023/03/22 09:33:49;;;;;;;2.17;1.10;;;14.10;66.60;;;;;;5052099;28;20432;-71
2023/03/22 09:36:16;;;;;;;2.40;1.00;;;14.10;63.90;;;;;;5051623;28;20791;-71
2023/03/22 09:38:44;;;;;;;2.90;1.77;;;14.00;65.40;;;;;;5047048;28;20517;-70
2023/03/22 09:41:15;;;;;;;3.00;1.70;;;14.20;65.80;;;;;;5053729;28;20429;-72
2023/03/22 09:43:48;;;;;;;1.80;0.90;;;14.50;63.30;;;;;;5044454;28;20432;-71
2023/03/22 09:46:17;;;;;;;2.10;1.10;;;14.80;62.90;;;;;;5045964;28;20428;-73
2023/03/22 09:48:47;;;;;;;2.80;1.50;;;15.10;61.20;;;;;;5044882;28;20505;-71
2023/03/22 09:51:29;;;;;;;2.35;1.17;;;15.50;59.50;;;;;;5053473;28;20417;-71
2023/03/22 09:53:56;;;;;;;2.60;1.20;;;15.90;57.30;;;;;;5043504;28;20543;-71
2023/03/22 09:56:26;;;;;;;3.00;1.30;;;15.90;55.20;;;;;;5044382;28;20413;-71
2023/03/22 09:59:00;;;;;;;2.80;1.35;;;15.60;55.50;;;;;;5044675;28;20860;-71
2023/03/22 10:01:33;;;;;;;2.70;1.20;;;15.50;56.60;;;;;;5049489;28;20431;-72
2023/03/22 10:04:29;;;;;;;2.40;1.10;;;15.50;56.40;;;;;;5047268;28;20519;-71
2023/03/22 10:07:06;;;;;;;3.55;1.10;;;15.30;57.90;;;;;;5057806;28;20425;-70
2023/03/22 10:09:37;;;;;;;2.92;0.88;;;15.20;55.90;;;;;;5046520;28;20532;-71
2023/03/22 10:12:13;;;;;;;2.05;1.00;;;15.10;57.30;;;;;;5054560;28;20420;-70
2023/03/22 10:14:47;;;;;;;2.08;1.10;;;14.90;59.20;;;;;;5048745;28;20430;-70
2023/03/22 10:17:17;;;;;;;2.00;1.00;;;14.90;58.20;;;;;;5049519;28;20509;-72
2023/03/22 10:19:51;;;;;;;1.70;0.90;;;14.80;58.20;;;;;;5049705;28;20436;-70
2023/03/22 10:22:23;;;;;;;3.35;1.10;;;14.70;59.20;;;;;;5070787;22;20433;-72
2023/03/22 10:24:51;;;;;;;1.75;0.90;;;14.70;58.50;;;;;;5077078;28;20438;-72
2023/03/22 10:27:20;;;;;;;1.38;1.17;;;14.60;59.40;;;;;;5071169;28;20419;-72
2023/03/22 10:29:53;;;;;;;4.10;1.15;;;14.80;59.00;;;;;;5069676;28;20468;-71
2023/03/22 10:32:26;;;;;;;2.45;1.00;;;15.30;58.00;;;;;;5067895;28;20890;-70
2023/03/22 10:34:53;;;;;;;2.10;1.17;;;15.60;54.80;;;;;;5068350;28;20479;-72
2023/03/22 10:37:24;;;;;;;1.60;0.90;;;15.60;54.40;;;;;;5072763;28;20428;-71
2023/03/22 10:39:55;;;;;;;2.10;0.90;;;15.50;54.60;;;;;;5051200;28;20424;-72
2023/03/22 10:42:25;;;;;;;2.30;1.13;;;15.60;54.30;;;;;;5049950;28;20440;-72
2023/03/22 10:44:57;;;;;;;2.47;1.10;;;15.50;55.10;;;;;;5049617;28;20767;-72
2023/03/22 10:47:30;;;;;;;2.58;1.23;;;15.40;56.80;;;;;;5060161;28;20464;-70
2023/03/22 10:50:00;;;;;;;2.20;1.02;;;15.50;55.30;;;;;;5055824;28;20819;-70
2023/03/22 10:52:38;;;;;;;2.05;1.00;;;15.40;55.10;;;;;;5065670;28;20524;-70
2023/03/22 10:55:10;;;;;;;2.30;1.30;;;15.50;55.90;;;;;;5050953;28;20926;-71
2023/03/22 10:57:38;;;;;;;2.25;1.38;;;15.50;55.80;;;;;;5052711;28;20413;-70
2023/03/22 11:00:10;;;;;;;3.50;1.02;;;15.30;55.80;;;;;;5077472;28;20421;-70
2023/03/22 11:02:51;;;;;;;2.88;1.00;;;15.10;56.80;;;;;;5070120;28;20440;-72
2023/03/22 11:05:23;;;;;;;3.55;1.02;;;15.00;56.90;;;;;;5074082;28;20429;-72
2023/03/22 11:07:49;;;;;;;1.92;0.80;;;14.90;57.90;;;;;;5065649;28;20452;-72
2023/03/22 11:10:23;;;;;;;3.58;1.27;;;14.90;58.50;;;;;;5051103;28;20930;-72
2023/03/22 11:12:52;;;;;;;1.83;1.00;;;14.80;58.00;;;;;;5055960;28;20439;-70
2023/03/22 11:15:31;;;;;;;1.95;1.00;;;14.70;59.40;;;;;;5077619;28;20696;-72
2023/03/22 11:18:01;;;;;;;2.38;0.88;;;14.70;59.10;;;;;;5051779;28;20767;-72
2023/03/22 11:20:28;;;;;;;4.47;1.20;;;14.70;58.90;;;;;;5072732;28;20410;-72
2023/03/22 11:22:56;;;;;;;2.00;1.00;;;14.70;58.40;;;;;;5054218;28;20409;-72
2023/03/22 11:25:27;;;;;;;2.20;1.00;;;14.50;58.00;;;;;;5050082;28;20425;-72
2023/03/22 11:27:57;;;;;;;1.90;0.90;;;14.40;58.50;;;;;;5049980;28;20417;-73
2023/03/22 11:30:25;;;;;;;2.03;1.20;;;14.30;58.60;;;;;;5061953;28;20437;-71
2023/03/22 11:33:09;;;;;;;1.97;1.03;;;14.40;59.20;;;;;;5070561;28;20466;-70
2023/03/22 11:35:37;;;;;;;2.25;1.30;;;14.30;59.30;;;;;;5066369;28;20426;-70
2023/03/22 11:38:05;;;;;;;2.75;0.90;;;14.40;59.50;;;;;;5064899;28;20414;-70
2023/03/22 11:40:33;;;;;;;2.47;1.40;;;14.40;59.90;;;;;;5048813;28;20436;-70
2023/03/22 11:43:13;;;;;;;1.53;0.90;;;14.40;58.60;;;;;;5049601;28;20502;-70
2023/03/22 11:45:42;;;;;;;2.10;1.10;;;14.30;59.20;;;;;;5048242;28;20422;-70
2023/03/22 11:48:17;;;;;;;4.45;1.20;;;14.40;58.40;;;;;;5081746;28;20428;-72
2023/03/22 11:50:45;;;;;;;2.75;1.10;;;14.40;58.60;;;;;;5067985;28;20907;-72
2023/03/22 11:53:15;;;;;;;2.45;1.30;;;14.40;58.90;;;;;;5072318;28;20932;-72
2023/03/22 11:55:42;;;;;;;1.80;1.00;;;14.30;58.40;;;;;;5049938;28;20409;-72
2023/03/22 11:58:26;;;;;;;1.73;1.10;;;14.30;59.60;;;;;;5049694;28;20440;-72
2023/03/22 12:00:55;;;;;;;2.10;1.00;;;14.10;59.30;;;;;;5065884;28;20510;-71
2023/03/22 12:03:27;;;;;;;2.60;1.10;;;14.10;60.50;;;;;;5075740;28;20435;-71
2023/03/22 12:05:55;;;;;;;3.17;1.30;;;14.00;60.50;;;;;;5084131;28;20412;-71
2023/03/22 12:08:27;;;;;;;3.15;1.20;;;14.00;60.70;;;;;;5064222;28;20987;-71
2023/03/22 12:11:01;;;;;;;1.70;1.00;;;14.00;60.00;;;;;;5075647;28;20435;-72
2023/03/22 12:13:35;;;;;;;2.70;1.20;;;13.90;61.30;;;;;;5048703;28;20883;-72
2023/03/22 12:16:04;;;;;;;2.40;1.00;;;13.90;61.30;;;;;;5047719;28;20424;-71
2023/03/22 12:18:41;;;;;;;3.50;1.20;;;13.90;61.90;;;;;;5075238;28;20606;-72
2023/03/22 12:21:10;;;;;;;1.60;1.00;;;13.80;62.60;;;;;;5072443;28;20421;-72
2023/03/22 12:23:37;;;;;;;2.60;1.00;;;13.80;62.70;;;;;;5048219;28;20901;-72
2023/03/22 12:26:06;;;;;;;2.33;1.10;;;13.80;61.80;;;;;;5053275;28;20786;-73
2023/03/22 12:28:39;;;;;;;3.17;1.10;;;13.70;62.80;;;;;;5073891;28;20430;-71
2023/03/22 12:31:10;;;;;;;2.88;1.00;;;13.70;62.60;;;;;;5058305;28;20476;-71
2023/03/22 12:33:42;;;;;;;2.50;0.90;;;13.70;62.70;;;;;;5074362;28;20515;-72
2023/03/22 12:36:16;;;;;;;2.72;1.10;;;13.70;63.50;;;;;;5081921;28;20421;-72
2023/03/22 12:38:48;;;;;;;3.90;1.40;;;13.70;64.60;;;;;;5062314;28;20881;-70
2023/03/22 12:41:16;;;;;;;1.83;1.13;;;13.70;63.50;;;;;;5070190;28;20434;-71
2023/03/22 12:43:50;;;;;;;2.83;1.13;;;13.70;64.20;;;;;;5054930;28;20800;-71
2023/03/22 12:46:20;;;;;;;3.00;1.10;;;13.70;64.90;;;;;;5047436;28;20421;-71
2023/03/22 12:48:51;;;;;;;2.08;1.20;;;13.70;64.70;;;;;;5047845;28;20421;-71
2023/03/22 12:51:18;;;;;;;2.58;0.88;;;13.60;65.30;;;;;;5059685;28;20833;-71
2023/03/22 12:53:47;;;;;;;2.90;1.20;;;13.60;65.10;;;;;;5075020;28;20413;-72
2023/03/22 12:56:17;;;;;;;1.60;1.00;;;13.60;65.70;;;;;;5048541;28;21218;-71
2023/03/22 12:58:48;;;;;;;1.90;1.10;;;13.60;66.30;;;;;;5048002;28;20848;-71
2023/03/22 13:01:29;;;;;;;2.00;1.10;;;13.60;66.30;;;;;;5060101;28;20423;-72